Observation data for Plainview on 09/12/2017      Previous  Date  Next       Current Mesonet Observations  Soil Data  Daily Summary Page  Observations in Plain Language
KPVS 120500Z 14005KT 20/12 A3014 RMK A01 T01980116  RH  060%=      5-min Rain = 0
KPVS 120505Z 14004KT 20/12 A3014 RMK A01 T01960116  RH  061%=      5-min Rain = 0
KPVS 120510Z 14004KT 20/12 A3014 RMK A01 T01960116  RH  061%=      5-min Rain = 0
KPVS 120515Z 14004KT 20/12 A3014 RMK A01 T01960115  RH  061%=      5-min Rain = 0
KPVS 120520Z 14003KT 20/12 A3014 RMK A01 T01950115  RH  061%=      5-min Rain = 0
KPVS 120525Z 13003KT 19/12 A3014 RMK A01 T01920115  RH  062%=      5-min Rain = 0
KPVS 120530Z 13003KT 19/12 A3014 RMK A01 T01900115  RH  063%=      5-min Rain = 0
KPVS 120535Z 13002KT 19/12 A3014 RMK A01 T01870115  RH  064%=      5-min Rain = 0
KPVS 120540Z 13002KT 19/12 A3014 RMK A01 T01850115  RH  065%=      5-min Rain = 0
KPVS 120545Z 14002KT 18/11 A3013 RMK A01 T01810113  RH  066%=      5-min Rain = 0
KPVS 120550Z 13002KT 17/11 A3013 RMK A01 T01740113  RH  068%=      5-min Rain = 0
KPVS 120555Z 16002KT 17/11 A3013 RMK A01 T01710112  RH  069%=      5-min Rain = 0
KPVS 120600Z 16002KT 17/11 A3013 RMK A01 T01700113  RH  070%=      5-min Rain = 0
KPVS 120605Z 16002KT 17/11 A3013 RMK A01 T01700114  RH  071%=      5-min Rain = 0
KPVS 120610Z 16002KT 17/11 A3013 RMK A01 T01700114  RH  070%=      5-min Rain = 0
KPVS 120615Z 18002KT 17/11 A3013 RMK A01 T01690113  RH  071%=      5-min Rain = 0
KPVS 120620Z 19003KT 17/11 A3013 RMK A01 T01670113  RH  071%=      5-min Rain = 0
KPVS 120625Z 19003KT 17/11 A3013 RMK A01 T01660113  RH  072%=      5-min Rain = 0
KPVS 120630Z 22001KT 16/11 A3013 RMK A01 T01630111  RH  072%=      5-min Rain = 0
KPVS 120635Z 23001KT 16/11 A3013 RMK A01 T01570109  RH  074%=      5-min Rain = 0
KPVS 120640Z 23001KT 15/11 A3013 RMK A01 T01540110  RH  077%=      5-min Rain = 0
KPVS 120645Z 22002KT 15/11 A3013 RMK A01 T01540112  RH  077%=      5-min Rain = 0
KPVS 120650Z 22002KT 15/11 A3013 RMK A01 T01530111  RH  078%=      5-min Rain = 0
KPVS 120655Z 22001KT 15/11 A3013 RMK A01 T01520112  RH  078%=      5-min Rain = 0
KPVS 120700Z 24002KT 15/11 A3013 RMK A01 T01500111  RH  079%=      5-min Rain = 0
KPVS 120705Z 24001KT 15/11 A3012 RMK A01 T01520114  RH  080%=      5-min Rain = 0
KPVS 120710Z 24002KT 15/11 A3012 RMK A01 T01520113  RH  079%=      5-min Rain = 0
KPVS 120715Z 23002KT 15/11 A3012 RMK A01 T01510114  RH  080%=      5-min Rain = 0
KPVS 120720Z 22002KT 15/11 A3012 RMK A01 T01500113  RH  080%=      5-min Rain = 0
KPVS 120725Z 23002KT 15/11 A3012 RMK A01 T01500113  RH  080%=      5-min Rain = 0
KPVS 120730Z 23002KT 15/11 A3012 RMK A01 T01500114  RH  080%=      5-min Rain = 0
KPVS 120735Z 23002KT 15/11 A3012 RMK A01 T01500113  RH  080%=      5-min Rain = 0
KPVS 120740Z 23001KT 15/11 A3012 RMK A01 T01490112  RH  080%=      5-min Rain = 0
KPVS 120745Z 24001KT 15/11 A3011 RMK A01 T01490112  RH  080%=      5-min Rain = 0
KPVS 120750Z 24002KT 15/11 A3011 RMK A01 T01490111  RH  080%=      5-min Rain = 0
KPVS 120755Z 22002KT 15/11 A3011 RMK A01 T01470110  RH  080%=      5-min Rain = 0
KPVS 120800Z 22002KT 15/11 A3011 RMK A01 T01460111  RH  081%=      5-min Rain = 0
KPVS 120805Z 22001KT 15/11 A3011 RMK A01 T01460111  RH  081%=      5-min Rain = 0
KPVS 120810Z 23001KT 15/11 A3011 RMK A01 T01470112  RH  081%=      5-min Rain = 0
KPVS 120815Z 23001KT 15/11 A3011 RMK A01 T01480112  RH  080%=      5-min Rain = 0
KPVS 120820Z 23001KT 15/11 A3011 RMK A01 T01480111  RH  080%=      5-min Rain = 0
KPVS 120825Z 22001KT 15/11 A3011 RMK A01 T01480111  RH  080%=      5-min Rain = 0
KPVS 120830Z 22001KT 15/11 A3011 RMK A01 T01470111  RH  080%=      5-min Rain = 0
KPVS 120835Z 22001KT 15/11 A301 RMK A01 T01470110  RH  080%=      5-min Rain = 0
KPVS 120840Z 23002KT 15/11 A301 RMK A01 T01460110  RH  080%=      5-min Rain = 0
KPVS 120845Z 24002KT 15/11 A301 RMK A01 T01460111  RH  081%=      5-min Rain = 0
KPVS 120850Z 24002KT 14/11 A301 RMK A01 T01440108  RH  081%=      5-min Rain = 0
KPVS 120855Z 22002KT 14/11 A301 RMK A01 T01430109  RH  081%=      5-min Rain = 0
KPVS 120900Z 24001KT 14/11 A301 RMK A01 T01440108  RH  081%=      5-min Rain = 0
KPVS 120905Z 24002KT 14/11 A301 RMK A01 T01420107  RH  081%=      5-min Rain = 0
KPVS 120910Z 23002KT 14/11 A301 RMK A01 T01420108  RH  082%=      5-min Rain = 0
KPVS 120915Z 24003KT 14/11 A301 RMK A01 T01430108  RH  081%=      5-min Rain = 0
KPVS 120920Z 24002KT 14/11 A3009 RMK A01 T01420109  RH  082%=      5-min Rain = 0
KPVS 120925Z 25002KT 14/11 A3009 RMK A01 T01440109  RH  081%=      5-min Rain = 0
KPVS 120930Z 25003KT 14/11 A3009 RMK A01 T01420105  RH  080%=      5-min Rain = 0
KPVS 120935Z 24002KT 14/11 A3009 RMK A01 T01420108  RH  082%=      5-min Rain = 0
KPVS 120940Z 23002KT 14/11 A3009 RMK A01 T01440109  RH  081%=      5-min Rain = 0
KPVS 120945Z 23001KT 14/11 A3009 RMK A01 T01440108  RH  080%=      5-min Rain = 0
KPVS 120950Z 24001KT 15/11 A3009 RMK A01 T01460109  RH  080%=      5-min Rain = 0
KPVS 120955Z 26002KT 15/11 A3009 RMK A01 T01470107  RH  078%=      5-min Rain = 0
KPVS 121000Z 27002KT 15/11 A3009 RMK A01 T01450107  RH  079%=      5-min Rain = 0
KPVS 121005Z 27002KT 15/11 A3009 RMK A01 T01450107  RH  079%=      5-min Rain = 0
KPVS 121010Z 27002KT 15/11 A3009 RMK A01 T01450108  RH  080%=      5-min Rain = 0
KPVS 121015Z 26002KT 15/11 A3009 RMK A01 T01460108  RH  080%=      5-min Rain = 0
KPVS 121020Z 26002KT 15/11 A3009 RMK A01 T01460108  RH  079%=      5-min Rain = 0
KPVS 121025Z 27001KT 15/11 A3009 RMK A01 T01470108  RH  079%=      5-min Rain = 0
KPVS 121030Z 27001KT 15/11 A3009 RMK A01 T01460107  RH  079%=      5-min Rain = 0
KPVS 121035Z 27001KT 15/11 A3009 RMK A01 T01470108  RH  079%=      5-min Rain = 0
KPVS 121040Z 27001KT 15/11 A3009 RMK A01 T01480108  RH  078%=      5-min Rain = 0
KPVS 121045Z 27001KT 15/11 A3009 RMK A01 T01490108  RH  078%=      5-min Rain = 0
KPVS 121050Z 25001KT 15/11 A3009 RMK A01 T01480107  RH  078%=      5-min Rain = 0
KPVS 121055Z 26001KT 15/11 A3009 RMK A01 T01460107  RH  079%=      5-min Rain = 0
KPVS 121100Z 26002KT 15/11 A3009 RMK A01 T01460108  RH  079%=      5-min Rain = 0
KPVS 121105Z 26002KT 14/11 A3009 RMK A01 T01440107  RH  080%=      5-min Rain = 0
KPVS 121110Z 25001KT 14/11 A3009 RMK A01 T01430107  RH  080%=      5-min Rain = 0
KPVS 121115Z 24002KT 14/11 A3009 RMK A01 T01410105  RH  081%=      5-min Rain = 0
KPVS 121120Z 24001KT 14/11 A3009 RMK A01 T01400107  RH  081%=      5-min Rain = 0
KPVS 121125Z 23001KT 14/11 A3009 RMK A01 T01420107  RH  081%=      5-min Rain = 0
KPVS 121130Z 21001KT 14/11 A3009 RMK A01 T01420107  RH  081%=      5-min Rain = 0
KPVS 121135Z 19001KT 14/11 A3009 RMK A01 T01420106  RH  080%=      5-min Rain = 0
KPVS 121140Z 15001KT 14/11 A3009 RMK A01 T01420106  RH  080%=      5-min Rain = 0
KPVS 121145Z 14001KT 14/11 A3009 RMK A01 T01420106  RH  081%=      5-min Rain = 0
KPVS 121150Z 15001KT 14/11 A3009 RMK A01 T01410106  RH  081%=      5-min Rain = 0
KPVS 121155Z 16001KT 14/11 A3009 RMK A01 T01390105  RH  082%=      5-min Rain = 0
KPVS 121200Z 16001KT 14/11 A3009 RMK A01 T01370105  RH  082%=      5-min Rain = 0
KPVS 121205Z 16000KT 14/10 A3009 RMK A01 T01360104  RH  083%=      5-min Rain = 0
KPVS 121210Z 00000KT 13/10 A3009 RMK A01 T01330102  RH  083%=      5-min Rain = 0
KPVS 121215Z 00000KT 13/10 A3009 RMK A01 T01290101  RH  085%=      5-min Rain = 0
KPVS 121220Z 00000KT 13/10 A3009 RMK A01 T01270101  RH  085%=      5-min Rain = 0
KPVS 121225Z 00000KT 13/10 A3009 RMK A01 T01260102  RH  087%=      5-min Rain = 0
KPVS 121230Z 29001KT 13/10 A3009 RMK A01 T01260101  RH  086%=      5-min Rain = 0
KPVS 121235Z 29002KT 12/10 A3009 RMK A01 T01230099  RH  087%=      5-min Rain = 0
KPVS 121240Z 30002KT 12/10 A3009 RMK A01 T01220100  RH  088%=      5-min Rain = 0
KPVS 121245Z 30001KT 13/10 A3009 RMK A01 T01250104  RH  089%=      5-min Rain = 0
KPVS 121250Z 30001KT 13/11 A3009 RMK A01 T01280106  RH  088%=      5-min Rain = 0
KPVS 121255Z 30000KT 13/11 A3009 RMK A01 T01300107  RH  087%=      5-min Rain = 0
KPVS 121300Z 30000KT 13/11 A3009 RMK A01 T01340109  RH  086%=      5-min Rain = 0
KPVS 121305Z 00000KT 14/11 A3009 RMK A01 T01380111  RH  085%=      5-min Rain = 0
KPVS 121310Z 00000KT 14/11 A301 RMK A01 T01420112  RH  083%=      5-min Rain = 0
KPVS 121315Z 00000KT 15/11 A301 RMK A01 T01460113  RH  082%=      5-min Rain = 0
KPVS 121320Z 00000KT 15/12 A3009 RMK A01 T01500116  RH  082%=      5-min Rain = 0
KPVS 121325Z 00000KT 15/12 A3009 RMK A01 T01540117  RH  080%=      5-min Rain = 0
KPVS 121330Z 13000KT 16/12 A3009 RMK A01 T01580117  RH  078%=      5-min Rain = 0
KPVS 121335Z 15001KT 16/12 A3009 RMK A01 T01640118  RH  076%=      5-min Rain = 0
KPVS 121340Z 19001KT 17/12 A3009 RMK A01 T01700118  RH  073%=      5-min Rain = 0
KPVS 121345Z 17002KT 17/12 A3009 RMK A01 T01740116  RH  070%=      5-min Rain = 0
KPVS 121350Z 17002KT 18/12 A3009 RMK A01 T01780116  RH  068%=      5-min Rain = 0
KPVS 121355Z 18002KT 18/12 A3009 RMK A01 T01820117  RH  067%=      5-min Rain = 0
KPVS 121400Z 20002KT 19/12 A3009 RMK A01 T01850115  RH  065%=      5-min Rain = 0
KPVS 121405Z 20002KT 19/12 A3009 RMK A01 T01870117  RH  065%=      5-min Rain = 0
KPVS 121410Z 20002KT 19/12 A3009 RMK A01 T01920118  RH  063%=      5-min Rain = 0
KPVS 121415Z 19003KT 20/12 A3009 RMK A01 T01970116  RH  061%=      5-min Rain = 0
KPVS 121420Z 19004KT 20/12 A3009 RMK A01 T01980115  RH  060%=      5-min Rain = 0
KPVS 121425Z 19003KT 20/12 A3009 RMK A01 T02020118  RH  060%=      5-min Rain = 0
KPVS 121430Z 19004KT 21/12 A3009 RMK A01 T02050119  RH  059%=      5-min Rain = 0
KPVS 121435Z 18004KT 21/12 A3009 RMK A01 T02090118  RH  057%=      5-min Rain = 0
KPVS 121440Z 18004KT 21/12 A3009 RMK A01 T02140118  RH  055%=      5-min Rain = 0
KPVS 121445Z 20004KT 22/12 A3009 RMK A01 T02180118  RH  054%=      5-min Rain = 0
KPVS 121450Z 20005KT 22/12 A3009 RMK A01 T02190118  RH  054%=      5-min Rain = 0
KPVS 121455Z 20005KT 22/12 A3009 RMK A01 T02220119  RH  053%=      5-min Rain = 0
KPVS 121500Z 19004KT 23/12 A3009 RMK A01 T02260120  RH  052%=      5-min Rain = 0
KPVS 121505Z 18004KT 23/12 A3009 RMK A01 T02290122  RH  052%=      5-min Rain = 0
KPVS 121510Z 19005KT 23/12 A3009 RMK A01 T02340122  RH  050%=      5-min Rain = 0
KPVS 121515Z 17005KT 24/12 A3009 RMK A01 T02380124  RH  050%=      5-min Rain = 0
KPVS 121520Z 16004KT 24/12 A3009 RMK A01 T02430124  RH  048%=      5-min Rain = 0
KPVS 121525Z 18004KT 24/12 A3009 RMK A01 T02440124  RH  048%=      5-min Rain = 0
KPVS 121530Z 18004KT 25/12 A3009 RMK A01 T02460119  RH  046%=      5-min Rain = 0
KPVS 121535Z 20005KT 25/12 A3009 RMK A01 T02480115  RH  044%=      5-min Rain = 0
KPVS 121540Z 19005KT 25/12 A3008 RMK A01 T02480119  RH  045%=      5-min Rain = 0
KPVS 121545Z 19006KT 25/12 A3008 RMK A01 T02510117  RH  044%=      5-min Rain = 0
KPVS 121550Z 21004KT 25/12 A3008 RMK A01 T02530115  RH  043%=      5-min Rain = 0
KPVS 121555Z 20006KT 26/11 A3008 RMK A01 T02560113  RH  042%=      5-min Rain = 0
KPVS 121600Z 19005KT 26/12 A3008 RMK A01 T02570115  RH  042%=      5-min Rain = 0
KPVS 121605Z 19005KT 26/12 A3008 RMK A01 T02610116  RH  041%=      5-min Rain = 0
KPVS 121610Z 18006KT 27/12 A3008 RMK A01 T02650115  RH  040%=      5-min Rain = 0
KPVS 121615Z 17006KT 27/12 A3008 RMK A01 T02680115  RH  039%=      5-min Rain = 0
KPVS 121620Z 20005G10KT 27/11 A3007 RMK A01 T02690113  RH  038%=      5-min Rain = 0
KPVS 121625Z 21005KT 27/11 A3007 RMK A01 T02740111  RH  037%=      5-min Rain = 0
KPVS 121630Z 20004KT 27/11 A3007 RMK A01 T02740111  RH  037%=      5-min Rain = 0
KPVS 121635Z 22005KT 28/11 A3007 RMK A01 T02760107  RH  035%=      5-min Rain = 0
KPVS 121640Z 21005KT 28/11 A3007 RMK A01 T02820108  RH  035%=      5-min Rain = 0
KPVS 121645Z 22005KT 28/11 A3007 RMK A01 T02830107  RH  034%=      5-min Rain = 0
KPVS 121650Z 24004KT 29/11 A3007 RMK A01 T02880108  RH  033%=      5-min Rain = 0
KPVS 121655Z 24005KT 29/11 A3007 RMK A01 T02860106  RH  033%=      5-min Rain = 0
KPVS 121700Z 23005KT 28/11 A3007 RMK A01 T02840109  RH  034%=      5-min Rain = 0
KPVS 121705Z 25005KT 29/10 A3006 RMK A01 T02860103  RH  033%=      5-min Rain = 0
KPVS 121710Z 23003KT 29/10 A3006 RMK A01 T02890104  RH  032%=      5-min Rain = 0
KPVS 121715Z 23004KT 29/11 A3006 RMK A01 T02900107  RH  033%=      5-min Rain = 0
KPVS 121720Z 26005KT 29/11 A3006 RMK A01 T02940106  RH  032%=      5-min Rain = 0
KPVS 121725Z 26005KT 29/10 A3006 RMK A01 T02930104  RH  031%=      5-min Rain = 0
KPVS 121730Z 26005G10KT 29/11 A3006 RMK A01 T02940106  RH  032%=      5-min Rain = 0
KPVS 121735Z 24005KT 29/11 A3005 RMK A01 T02940105  RH  032%=      5-min Rain = 0
KPVS 121740Z 25005KT 30/11 A3005 RMK A01 T02960105  RH  031%=      5-min Rain = 0
KPVS 121745Z 26005KT 30/11 A3005 RMK A01 T02990105  RH  031%=      5-min Rain = 0
KPVS 121750Z 24005KT 30/11 A3005 RMK A01 T03040108  RH  030%=      5-min Rain = 0
KPVS 121755Z 27006G11KT 30/11 A3004 RMK A01 T03030105  RH  030%=      5-min Rain = 0
KPVS 121800Z 26006KT 31/10 A3004 RMK A01 T03060099  RH  028%=      5-min Rain = 0
KPVS 121805Z 26004KT 30/10 A3004 RMK A01 T03030099  RH  029%=      5-min Rain = 0
KPVS 121810Z 24004KT 31/10 A3004 RMK A01 T03080098  RH  028%=      5-min Rain = 0
KPVS 121815Z 30005KT 31/08 A3003 RMK A01 T03100084  RH  025%=      5-min Rain = 0
KPVS 121820Z 33004G10KT 31/09 A3003 RMK A01 T03130092  RH  026%=      5-min Rain = 0
KPVS 121825Z 32005KT 32/08 A3003 RMK A01 T03160081  RH  024%=      5-min Rain = 0
KPVS 121830Z 29003KT 31/09 A3003 RMK A01 T03140085  RH  024%=      5-min Rain = 0
KPVS 121835Z 33003KT 31/08 A3003 RMK A01 T03140084  RH  024%=      5-min Rain = 0
KPVS 121840Z 27005KT 32/08 A3002 RMK A01 T03210080  RH  023%=      5-min Rain = 0
KPVS 121845Z 28005G12KT 32/08 A3002 RMK A01 T03180077  RH  023%=      5-min Rain = 0
KPVS 121850Z 25005KT 32/08 A3002 RMK A01 T03220080  RH  023%=      5-min Rain = 0
KPVS 121855Z 30007G13KT 32/08 A3002 RMK A01 T03230075  RH  022%=      5-min Rain = 0
KPVS 121900Z 28004G9KT 32/08 A3001 RMK A01 T03230076  RH  022%=      5-min Rain = 0
KPVS 121905Z 29006KT 32/08 A3001 RMK A01 T03240078  RH  022%=      5-min Rain = 0
KPVS 121910Z 29008KT 33/08 A3001 RMK A01 T03270078  RH  022%=      5-min Rain = 0
KPVS 121915Z 28007KT 33/08 A30 RMK A01 T03250080  RH  022%=      5-min Rain = 0
KPVS 121920Z 25004KT 33/08 A30 RMK A01 T03250081  RH  022%=      5-min Rain = 0
KPVS 121925Z 28008G13KT 33/08 A30 RMK A01 T03270079  RH  022%=      5-min Rain = 0
KPVS 121930Z 29008G14KT 33/08 A30 RMK A01 T03310075  RH  021%=      5-min Rain = 0
KPVS 121935Z 32008KT 33/07 A30 RMK A01 T03290074  RH  021%=      5-min Rain = 0
KPVS 121940Z 28009KT 33/07 A2999 RMK A01 T03290073  RH  021%=      5-min Rain = 0
KPVS 121945Z 27006KT 33/08 A2999 RMK A01 T03280077  RH  021%=      5-min Rain = 0
KPVS 121950Z 28007G12KT 33/08 A2999 RMK A01 T03310081  RH  022%=      5-min Rain = 0
KPVS 121955Z 28006G11KT 33/08 A2999 RMK A01 T03290077  RH  021%=      5-min Rain = 0
KPVS 122000Z 30005G11KT 33/08 A2998 RMK A01 T03300077  RH  021%=      5-min Rain = 0
KPVS 122005Z 33005G11KT 34/07 A2998 RMK A01 T03350067  RH  019%=      5-min Rain = 0
KPVS 122010Z 36007KT 34/07 A2998 RMK A01 T03360069  RH  019%=      5-min Rain = 0
KPVS 122015Z 02007KT 34/07 A2997 RMK A01 T03360073  RH  020%=      5-min Rain = 0
KPVS 122020Z 32006KT 34/08 A2997 RMK A01 T03360078  RH  021%=      5-min Rain = 0
KPVS 122025Z 32007KT 34/08 A2997 RMK A01 T03370080  RH  021%=      5-min Rain = 0
KPVS 122030Z 27007G13KT 34/08 A2997 RMK A01 T03370082  RH  021%=      5-min Rain = 0
KPVS 122035Z 27008KT 34/08 A2996 RMK A01 T03360078  RH  021%=      5-min Rain = 0
KPVS 122040Z 31007KT 34/08 A2996 RMK A01 T03350077  RH  021%=      5-min Rain = 0
KPVS 122045Z 34004G9KT 34/08 A2996 RMK A01 T03360080  RH  021%=      5-min Rain = 0
KPVS 122050Z 34006KT 34/08 A2996 RMK A01 T03380081  RH  021%=      5-min Rain = 0
KPVS 122055Z 32005KT 34/08 A2995 RMK A01 T03420078  RH  020%=      5-min Rain = 0
KPVS 122100Z 32006KT 34/07 A2995 RMK A01 T03420073  RH  019%=      5-min Rain = 0
KPVS 122105Z 32009KT 34/07 A2995 RMK A01 T03440068  RH  018%=      5-min Rain = 0
KPVS 122110Z 33006KT 34/07 A2995 RMK A01 T03410066  RH  019%=      5-min Rain = 0
KPVS 122115Z 31008KT 34/06 A2995 RMK A01 T03410061  RH  018%=      5-min Rain = 0
KPVS 122120Z 35007KT 34/06 A2994 RMK A01 T03400064  RH  018%=      5-min Rain = 0
KPVS 122125Z 30006KT 34/07 A2994 RMK A01 T03420068  RH  019%=      5-min Rain = 0
KPVS 122130Z 31006G11KT 35/07 A2994 RMK A01 T03450074  RH  019%=      5-min Rain = 0
KPVS 122135Z 31008KT 34/07 A2994 RMK A01 T03410074  RH  020%=      5-min Rain = 0
KPVS 122140Z 33006G13KT 34/08 A2994 RMK A01 T03420076  RH  020%=      5-min Rain = 0
KPVS 122145Z 02006KT 34/08 A2993 RMK A01 T03400076  RH  020%=      5-min Rain = 0
KPVS 122150Z 35005G12KT 34/08 A2993 RMK A01 T03380076  RH  020%=      5-min Rain = 0
KPVS 122155Z 34008KT 34/08 A2993 RMK A01 T03400078  RH  020%=      5-min Rain = 0
KPVS 122200Z 31007KT 34/08 A2993 RMK A01 T03430078  RH  020%=      5-min Rain = 0
KPVS 122205Z 36006KT 34/08 A2993 RMK A01 T03440077  RH  020%=      5-min Rain = 0
KPVS 122210Z 32004KT 34/08 A2993 RMK A01 T03400078  RH  020%=      5-min Rain = 0
KPVS 122215Z 32006KT 34/08 A2993 RMK A01 T03390078  RH  020%=      5-min Rain = 0
KPVS 122220Z 32004KT 34/08 A2993 RMK A01 T03410077  RH  020%=      5-min Rain = 0
KPVS 122225Z 35005KT 34/08 A2993 RMK A01 T03420078  RH  020%=      5-min Rain = 0
KPVS 122230Z 34003G8KT 34/08 A2993 RMK A01 T03390077  RH  020%=      5-min Rain = 0
KPVS 122235Z 21002KT 34/08 A2993 RMK A01 T03380077  RH  020%=      5-min Rain = 0
KPVS 122240Z 32004G9KT 34/08 A2992 RMK A01 T03420080  RH  020%=      5-min Rain = 0
KPVS 122245Z 32007KT 34/07 A2992 RMK A01 T03400066  RH  019%=      5-min Rain = 0
KPVS 122250Z 35006KT 34/07 A2992 RMK A01 T03390068  RH  019%=      5-min Rain = 0
KPVS 122255Z 34008KT 34/07 A2992 RMK A01 T03380070  RH  019%=      5-min Rain = 0
KPVS 122300Z 30005KT 34/08 A2992 RMK A01 T03360079  RH  021%=      5-min Rain = 0
KPVS 122305Z 28007KT 33/08 A2992 RMK A01 T03340079  RH  021%=      5-min Rain = 0
KPVS 122310Z 29005KT 33/08 A2992 RMK A01 T03310080  RH  021%=      5-min Rain = 0
KPVS 122315Z 28004KT 33/08 A2992 RMK A01 T03320079  RH  021%=      5-min Rain = 0
KPVS 122320Z 27006KT 33/08 A2992 RMK A01 T03300078  RH  021%=      5-min Rain = 0
KPVS 122325Z 35005KT 33/08 A2992 RMK A01 T03300078  RH  021%=      5-min Rain = 0
KPVS 122330Z 31008G14KT 33/10 A2991 RMK A01 T03280101  RH  025%=      5-min Rain = 0
KPVS 122335Z 13009KT 32/11 A2992 RMK A01 T03230109  RH  027%=      5-min Rain = 0
KPVS 122340Z 11009G16KT 32/12 A2992 RMK A01 T03170115  RH  030%=      5-min Rain = 0
KPVS 122345Z 10009G17KT 31/12 A2992 RMK A01 T03100117  RH  031%=      5-min Rain = 0
KPVS 122350Z 10008KT 31/12 A2992 RMK A01 T03070115  RH  031%=      5-min Rain = 0
KPVS 122355Z 10011KT 31/12 A2992 RMK A01 T03050117  RH  032%=      5-min Rain = 0
KPVS 130000Z 11010G16KT 30/12 A2992 RMK A01 T03000121  RH  034%=      5-min Rain = 0
KPVS 130005Z 10008G13KT 30/12 A2992 RMK A01 T02970123  RH  035%=      5-min Rain = 0
KPVS 130010Z 10007KT 30/12 A2992 RMK A01 T02950123  RH  035%=      5-min Rain = 0
KPVS 130015Z 09009G14KT 29/12 A2992 RMK A01 T02930123  RH  036%=      5-min Rain = 0
KPVS 130020Z 09009KT 29/12 A2992 RMK A01 T02910122  RH  036%=      5-min Rain = 0
KPVS 130025Z 10007KT 29/12 A2992 RMK A01 T02880123  RH  037%=      5-min Rain = 0
KPVS 130030Z 09008KT 29/12 A2993 RMK A01 T02860123  RH  037%=      5-min Rain = 0
KPVS 130035Z 09006KT 28/12 A2993 RMK A01 T02830124  RH  038%=      5-min Rain = 0
KPVS 130040Z 09007KT 28/13 A2993 RMK A01 T02790125  RH  039%=      5-min Rain = 0
KPVS 130045Z 09007KT 28/13 A2993 RMK A01 T02760125  RH  040%=      5-min Rain = 0
KPVS 130050Z 10007KT 28/13 A2993 RMK A01 T02750125  RH  040%=      5-min Rain = 0
KPVS 130055Z 09005KT 27/13 A2993 RMK A01 T02710126  RH  041%=      5-min Rain = 0
KPVS 130100Z 09006KT 27/13 A2993 RMK A01 T02680127  RH  042%=      5-min Rain = 0
KPVS 130105Z 09005KT 27/13 A2993 RMK A01 T02650127  RH  043%=      5-min Rain = 0
KPVS 130110Z 08006KT 26/13 A2993 RMK A01 T02610127  RH  044%=      5-min Rain = 0
KPVS 130115Z 08005KT 26/13 A2994 RMK A01 T02590127  RH  045%=      5-min Rain = 0
KPVS 130120Z 09005KT 26/13 A2994 RMK A01 T02560127  RH  045%=      5-min Rain = 0
KPVS 130125Z 09006KT 26/13 A2994 RMK A01 T02550126  RH  046%=      5-min Rain = 0
KPVS 130130Z 09007KT 25/13 A2994 RMK A01 T02530126  RH  046%=      5-min Rain = 0
KPVS 130135Z 09007KT 25/13 A2994 RMK A01 T02520126  RH  046%=      5-min Rain = 0
KPVS 130140Z 08007KT 25/13 A2994 RMK A01 T02500126  RH  047%=      5-min Rain = 0
KPVS 130145Z 09006KT 25/13 A2994 RMK A01 T02480126  RH  048%=      5-min Rain = 0
KPVS 130150Z 09006KT 25/13 A2994 RMK A01 T02460126  RH  048%=      5-min Rain = 0
KPVS 130155Z 09006KT 24/13 A2995 RMK A01 T02440126  RH  049%=      5-min Rain = 0
KPVS 130200Z 09006KT 24/13 A2995 RMK A01 T02440125  RH  048%=      5-min Rain = 0
KPVS 130205Z 10006KT 24/12 A2995 RMK A01 T02420124  RH  049%=      5-min Rain = 0
KPVS 130210Z 09007KT 24/12 A2995 RMK A01 T02420124  RH  049%=      5-min Rain = 0
KPVS 130215Z 09006KT 24/13 A2995 RMK A01 T02400125  RH  049%=      5-min Rain = 0
KPVS 130220Z 09005KT 24/13 A2995 RMK A01 T02370125  RH  050%=      5-min Rain = 0
KPVS 130225Z 10005KT 23/13 A2995 RMK A01 T02340125  RH  051%=      5-min Rain = 0
KPVS 130230Z 10005KT 23/13 A2996 RMK A01 T02320125  RH  052%=      5-min Rain = 0
KPVS 130235Z 10005KT 23/13 A2996 RMK A01 T02290125  RH  053%=      5-min Rain = 0
KPVS 130240Z 10005KT 23/13 A2996 RMK A01 T02280126  RH  054%=      5-min Rain = 0
KPVS 130245Z 10005KT 23/13 A2996 RMK A01 T02260126  RH  054%=      5-min Rain = 0
KPVS 130250Z 10004KT 22/13 A2996 RMK A01 T02240126  RH  055%=      5-min Rain = 0
KPVS 130255Z 10005KT 22/13 A2996 RMK A01 T02220126  RH  055%=      5-min Rain = 0
KPVS 130300Z 09005KT 22/13 A2996 RMK A01 T02210125  RH  055%=      5-min Rain = 0
KPVS 130305Z 10004KT 22/13 A2996 RMK A01 T02200125  RH  056%=      5-min Rain = 0
KPVS 130310Z 10004KT 22/13 A2997 RMK A01 T02190125  RH  056%=      5-min Rain = 0
KPVS 130315Z 10004KT 22/12 A2997 RMK A01 T02180124  RH  056%=      5-min Rain = 0
KPVS 130320Z 10004KT 22/13 A2997 RMK A01 T02170125  RH  057%=      5-min Rain = 0
KPVS 130325Z 10004KT 22/13 A2997 RMK A01 T02160125  RH  057%=      5-min Rain = 0
KPVS 130330Z 10003KT 21/13 A2997 RMK A01 T02140125  RH  058%=      5-min Rain = 0
KPVS 130335Z 11004KT 21/13 A2997 RMK A01 T02130126  RH  059%=      5-min Rain = 0
KPVS 130340Z 11004KT 21/13 A2997 RMK A01 T02110126  RH  059%=      5-min Rain = 0
KPVS 130345Z 11004KT 21/13 A2997 RMK A01 T02100127  RH  060%=      5-min Rain = 0
KPVS 130350Z 12004KT 21/13 A2997 RMK A01 T02090126  RH  060%=      5-min Rain = 0
KPVS 130355Z 12004KT 21/13 A2997 RMK A01 T02090125  RH  060%=      5-min Rain = 0
KPVS 130400Z 12004KT 21/12 A2997 RMK A01 T02090124  RH  059%=      5-min Rain = 0
KPVS 130405Z 11005KT 21/12 A2997 RMK A01 T02080122  RH  059%=      5-min Rain = 0
KPVS 130410Z 12005KT 21/12 A2997 RMK A01 T02090122  RH  059%=      5-min Rain = 0
KPVS 130415Z 12004KT 21/12 A2997 RMK A01 T02080122  RH  059%=      5-min Rain = 0
KPVS 130420Z 12004KT 21/12 A2997 RMK A01 T02080121  RH  059%=      5-min Rain = 0
KPVS 130425Z 12004KT 21/12 A2997 RMK A01 T02050121  RH  060%=      5-min Rain = 0
KPVS 130430Z 12005KT 20/12 A2997 RMK A01 T02040121  RH  060%=      5-min Rain = 0
KPVS 130435Z 12006KT 20/12 A2997 RMK A01 T02040119  RH  059%=      5-min Rain = 0
KPVS 130440Z 12006KT 21/12 A2997 RMK A01 T02050118  RH  058%=      5-min Rain = 0
KPVS 130445Z 12005KT 20/12 A2997 RMK A01 T02040118  RH  059%=      5-min Rain = 0
KPVS 130450Z 11005KT 20/12 A2997 RMK A01 T02020117  RH  059%=      5-min Rain = 0
KPVS 130455Z 11004KT 20/12 A2998 RMK A01 T01990116  RH  060%=      5-min Rain = 0

Page generated in 0.0214 seconds.